KMEI

Key Field Airport

Meridian, Mississippi, USA
METAR KMEI 241454Z 28007KT 10SM SCT022 BKN029 BKN038 30/24 A3004 RMK AO2 $
Observed Flight Rules
Jun-24 @ 14:54 UTC (8 minutes ago) Marginal Visual Flight Rules
Wind Visibility Clouds
280° at 7 knots 10 miles
  • Scattered at 2,200' AGL
  • Broken at 2,900' AGL
  • Broken at 3,800' AGL
Temperatures Readings
Current 30°C / 86°F
Dewpoint 24°C / 75°F
Humidity 70%
Altimeter 30.04" Hg
Pressure 1017 hPa
Elevation 89
METAR KMEI 241454Z 28007KT 10SM SCT022 BKN029 BKN038 30/24 A3004 RMK AO2 $
Observed Flight Rules
Jun-24 @ 14:54 UTC
(8 minutes ago)
MVFR
Wind Visibility
280° at 7 knots 10 miles
Clouds
  • Scattered at 2,200' AGL
  • Broken at 2,900' AGL
  • Broken at 3,800' AGL
Temperature Dewpoint
30°C / 86°F 24°C / 75°F
Humidity Altimeter Pressure
70% 30.04" Hg 1017 hPa